sensor_id;sensor_type;location;lat;lon;timestamp;pressure;altitude;pressure_sealevel;temperature
10869;BMP180;62667;48.698;8.762;2023-09-07T00:00:16;96411.00;;;16.30
10869;BMP180;62667;48.698;8.762;2023-09-07T00:02:43;96423.00;;;16.20
10869;BMP180;62667;48.698;8.762;2023-09-07T00:05:10;96417.00;;;16.10
10869;BMP180;62667;48.698;8.762;2023-09-07T00:07:40;96411.00;;;16.20
10869;BMP180;62667;48.698;8.762;2023-09-07T00:10:08;96415.00;;;16.10
10869;BMP180;62667;48.698;8.762;2023-09-07T00:12:36;96420.00;;;16.20
10869;BMP180;62667;48.698;8.762;2023-09-07T00:15:06;96409.00;;;16.10
10869;BMP180;62667;48.698;8.762;2023-09-07T00:17:34;96413.00;;;16.00
10869;BMP180;62667;48.698;8.762;2023-09-07T00:20:02;96404.00;;;15.80
10869;BMP180;62667;48.698;8.762;2023-09-07T00:22:35;96415.00;;;15.90
10869;BMP180;62667;48.698;8.762;2023-09-07T00:25:05;96414.00;;;15.70
10869;BMP180;62667;48.698;8.762;2023-09-07T00:27:33;96409.00;;;15.80
10869;BMP180;62667;48.698;8.762;2023-09-07T00:30:00;96419.00;;;15.60
10869;BMP180;62667;48.698;8.762;2023-09-07T00:32:28;96412.00;;;15.60
10869;BMP180;62667;48.698;8.762;2023-09-07T00:34:55;96408.00;;;15.50
10869;BMP180;62667;48.698;8.762;2023-09-07T00:37:22;96411.00;;;15.40
10869;BMP180;62667;48.698;8.762;2023-09-07T00:39:50;96405.00;;;15.50
10869;BMP180;62667;48.698;8.762;2023-09-07T00:42:20;96406.00;;;15.50
10869;BMP180;62667;48.698;8.762;2023-09-07T00:44:47;96403.00;;;15.70
10869;BMP180;62667;48.698;8.762;2023-09-07T00:47:15;96399.00;;;15.60
10869;BMP180;62667;48.698;8.762;2023-09-07T00:49:42;96400.00;;;15.40
10869;BMP180;62667;48.698;8.762;2023-09-07T00:52:10;96404.00;;;15.40
10869;BMP180;62667;48.698;8.762;2023-09-07T00:54:38;96403.00;;;15.50
10869;BMP180;62667;48.698;8.762;2023-09-07T00:57:06;96397.00;;;15.40
10869;BMP180;62667;48.698;8.762;2023-09-07T00:59:35;96394.00;;;15.30
10869;BMP180;62667;48.698;8.762;2023-09-07T01:02:03;96390.00;;;15.30
10869;BMP180;62667;48.698;8.762;2023-09-07T01:04:31;96392.00;;;15.30
10869;BMP180;62667;48.698;8.762;2023-09-07T01:07:03;96406.00;;;15.30
10869;BMP180;62667;48.698;8.762;2023-09-07T01:09:32;96397.00;;;15.30
10869;BMP180;62667;48.698;8.762;2023-09-07T01:12:02;96394.00;;;15.20
10869;BMP180;62667;48.698;8.762;2023-09-07T01:14:29;96404.00;;;15.20
10869;BMP180;62667;48.698;8.762;2023-09-07T01:16:58;96394.00;;;15.10
10869;BMP180;62667;48.698;8.762;2023-09-07T01:19:26;96401.00;;;15.00
10869;BMP180;62667;48.698;8.762;2023-09-07T01:21:54;96392.00;;;15.00
10869;BMP180;62667;48.698;8.762;2023-09-07T01:24:23;96387.00;;;15.00
10869;BMP180;62667;48.698;8.762;2023-09-07T01:26:51;96395.00;;;14.70
10869;BMP180;62667;48.698;8.762;2023-09-07T01:29:19;96385.00;;;14.80
10869;BMP180;62667;48.698;8.762;2023-09-07T01:31:46;96392.00;;;14.80
10869;BMP180;62667;48.698;8.762;2023-09-07T01:34:14;96396.00;;;14.90
10869;BMP180;62667;48.698;8.762;2023-09-07T01:36:41;96389.00;;;14.90
10869;BMP180;62667;48.698;8.762;2023-09-07T01:39:10;96389.00;;;14.80
10869;BMP180;62667;48.698;8.762;2023-09-07T01:41:37;96396.00;;;14.70
10869;BMP180;62667;48.698;8.762;2023-09-07T01:44:05;96388.00;;;14.70
10869;BMP180;62667;48.698;8.762;2023-09-07T01:46:32;96389.00;;;14.70
10869;BMP180;62667;48.698;8.762;2023-09-07T01:49:01;96394.00;;;14.60
10869;BMP180;62667;48.698;8.762;2023-09-07T01:51:29;96385.00;;;14.70
10869;BMP180;62667;48.698;8.762;2023-09-07T01:53:56;96385.00;;;14.70
10869;BMP180;62667;48.698;8.762;2023-09-07T01:56:25;96386.00;;;14.60
10869;BMP180;62667;48.698;8.762;2023-09-07T01:58:53;96385.00;;;14.50
10869;BMP180;62667;48.698;8.762;2023-09-07T02:01:21;96387.00;;;14.40
10869;BMP180;62667;48.698;8.762;2023-09-07T02:03:49;96389.00;;;14.40
10869;BMP180;62667;48.698;8.762;2023-09-07T02:06:16;96389.00;;;14.40
10869;BMP180;62667;48.698;8.762;2023-09-07T02:08:44;96390.00;;;14.40
10869;BMP180;62667;48.698;8.762;2023-09-07T02:11:11;96377.00;;;14.40
10869;BMP180;62667;48.698;8.762;2023-09-07T02:13:42;96384.00;;;14.40
10869;BMP180;62667;48.698;8.762;2023-09-07T02:16:10;96380.00;;;14.40
10869;BMP180;62667;48.698;8.762;2023-09-07T02:18:37;96386.00;;;14.30
10869;BMP180;62667;48.698;8.762;2023-09-07T02:21:09;96385.00;;;14.20
10869;BMP180;62667;48.698;8.762;2023-09-07T02:23:37;96381.00;;;14.30
10869;BMP180;62667;48.698;8.762;2023-09-07T02:26:04;96389.00;;;14.20
10869;BMP180;62667;48.698;8.762;2023-09-07T02:28:32;96383.00;;;14.20
10869;BMP180;62667;48.698;8.762;2023-09-07T02:31:04;96378.00;;;14.30
10869;BMP180;62667;48.698;8.762;2023-09-07T02:33:32;96380.00;;;14.40
10869;BMP180;62667;48.698;8.762;2023-09-07T02:36:00;96376.00;;;14.30
10869;BMP180;62667;48.698;8.762;2023-09-07T02:38:27;96377.00;;;14.30
10869;BMP180;62667;48.698;8.762;2023-09-07T02:40:56;96380.00;;;14.30
10869;BMP180;62667;48.698;8.762;2023-09-07T02:43:23;96382.00;;;14.20
10869;BMP180;62667;48.698;8.762;2023-09-07T02:45:51;96379.00;;;14.20
10869;BMP180;62667;48.698;8.762;2023-09-07T02:48:19;96383.00;;;14.30
10869;BMP180;62667;48.698;8.762;2023-09-07T02:50:49;96377.00;;;14.40
10869;BMP180;62667;48.698;8.762;2023-09-07T02:53:17;96383.00;;;14.30
10869;BMP180;62667;48.698;8.762;2023-09-07T02:55:44;96377.00;;;14.30
10869;BMP180;62667;48.698;8.762;2023-09-07T02:58:11;96382.00;;;14.30
10869;BMP180;62667;48.698;8.762;2023-09-07T03:00:42;96371.00;;;14.20
10869;BMP180;62667;48.698;8.762;2023-09-07T03:03:10;96380.00;;;14.20
10869;BMP180;62667;48.698;8.762;2023-09-07T03:05:41;96374.00;;;14.30
10869;BMP180;62667;48.698;8.762;2023-09-07T03:08:09;96382.00;;;14.30
10869;BMP180;62667;48.698;8.762;2023-09-07T03:10:36;96373.00;;;14.10
10869;BMP180;62667;48.698;8.762;2023-09-07T03:13:05;96371.00;;;14.10
10869;BMP180;62667;48.698;8.762;2023-09-07T03:15:33;96378.00;;;14.10
10869;BMP180;62667;48.698;8.762;2023-09-07T03:18:00;96362.00;;;14.10
10869;BMP180;62667;48.698;8.762;2023-09-07T03:20:28;96366.00;;;14.10
10869;BMP180;62667;48.698;8.762;2023-09-07T03:22:56;96366.00;;;14.10
10869;BMP180;62667;48.698;8.762;2023-09-07T03:25:24;96359.00;;;14.10
10869;BMP180;62667;48.698;8.762;2023-09-07T03:27:52;96360.00;;;14.00
10869;BMP180;62667;48.698;8.762;2023-09-07T03:30:19;96366.00;;;14.00
10869;BMP180;62667;48.698;8.762;2023-09-07T03:32:47;96351.00;;;13.90
10869;BMP180;62667;48.698;8.762;2023-09-07T03:35:14;96359.00;;;13.80
10869;BMP180;62667;48.698;8.762;2023-09-07T03:37:42;96361.00;;;13.70
10869;BMP180;62667;48.698;8.762;2023-09-07T03:40:11;96365.00;;;13.60
10869;BMP180;62667;48.698;8.762;2023-09-07T03:42:39;96373.00;;;13.60
10869;BMP180;62667;48.698;8.762;2023-09-07T03:45:07;96367.00;;;13.50
10869;BMP180;62667;48.698;8.762;2023-09-07T03:47:34;96362.00;;;13.40
10869;BMP180;62667;48.698;8.762;2023-09-07T03:50:01;96359.00;;;13.20
10869;BMP180;62667;48.698;8.762;2023-09-07T03:52:29;96369.00;;;13.20
10869;BMP180;62667;48.698;8.762;2023-09-07T03:54:57;96362.00;;;13.30
10869;BMP180;62667;48.698;8.762;2023-09-07T03:57:26;96364.00;;;13.30
10869;BMP180;62667;48.698;8.762;2023-09-07T03:59:54;96356.00;;;13.40
10869;BMP180;62667;48.698;8.762;2023-09-07T04:02:22;96359.00;;;13.30
10869;BMP180;62667;48.698;8.762;2023-09-07T04:04:49;96361.00;;;13.40
10869;BMP180;62667;48.698;8.762;2023-09-07T04:07:17;96358.00;;;13.30
10869;BMP180;62667;48.698;8.762;2023-09-07T04:09:45;96354.00;;;13.30
10869;BMP180;62667;48.698;8.762;2023-09-07T04:12:13;96355.00;;;13.30
10869;BMP180;62667;48.698;8.762;2023-09-07T04:14:41;96353.00;;;13.30
10869;BMP180;62667;48.698;8.762;2023-09-07T04:17:09;96353.00;;;13.30
10869;BMP180;62667;48.698;8.762;2023-09-07T04:19:36;96357.00;;;13.30
10869;BMP180;62667;48.698;8.762;2023-09-07T04:22:04;96363.00;;;13.50
10869;BMP180;62667;48.698;8.762;2023-09-07T04:24:31;96353.00;;;13.60
10869;BMP180;62667;48.698;8.762;2023-09-07T04:26:59;96354.00;;;13.70
10869;BMP180;62667;48.698;8.762;2023-09-07T04:29:28;96349.00;;;13.70
10869;BMP180;62667;48.698;8.762;2023-09-07T04:31:56;96350.00;;;13.70
10869;BMP180;62667;48.698;8.762;2023-09-07T04:34:24;96349.00;;;13.70
10869;BMP180;62667;48.698;8.762;2023-09-07T04:36:51;96348.00;;;13.70
10869;BMP180;62667;48.698;8.762;2023-09-07T04:39:19;96351.00;;;13.60
10869;BMP180;62667;48.698;8.762;2023-09-07T04:41:46;96348.00;;;13.50
10869;BMP180;62667;48.698;8.762;2023-09-07T04:44:14;96353.00;;;13.50
10869;BMP180;62667;48.698;8.762;2023-09-07T04:46:42;96345.00;;;13.50
10869;BMP180;62667;48.698;8.762;2023-09-07T04:49:10;96340.00;;;13.40
10869;BMP180;62667;48.698;8.762;2023-09-07T04:51:38;96345.00;;;13.60
10869;BMP180;62667;48.698;8.762;2023-09-07T04:54:05;96346.00;;;13.50
10869;BMP180;62667;48.698;8.762;2023-09-07T04:56:33;96350.00;;;13.60
10869;BMP180;62667;48.698;8.762;2023-09-07T04:59:00;96357.00;;;13.60
10869;BMP180;62667;48.698;8.762;2023-09-07T05:01:27;96344.00;;;13.70
10869;BMP180;62667;48.698;8.762;2023-09-07T05:03:55;96349.00;;;13.50
10869;BMP180;62667;48.698;8.762;2023-09-07T05:06:23;96352.00;;;13.30
10869;BMP180;62667;48.698;8.762;2023-09-07T05:08:52;96356.00;;;13.20
10869;BMP180;62667;48.698;8.762;2023-09-07T05:11:19;96349.00;;;13.10
10869;BMP180;62667;48.698;8.762;2023-09-07T05:13:47;96347.00;;;13.10
10869;BMP180;62667;48.698;8.762;2023-09-07T05:16:14;96345.00;;;13.10
10869;BMP180;62667;48.698;8.762;2023-09-07T05:18:42;96342.00;;;13.10
10869;BMP180;62667;48.698;8.762;2023-09-07T05:21:12;96341.00;;;13.10
10869;BMP180;62667;48.698;8.762;2023-09-07T05:23:41;96342.00;;;13.30
10869;BMP180;62667;48.698;8.762;2023-09-07T05:26:09;96353.00;;;13.30
10869;BMP180;62667;48.698;8.762;2023-09-07T05:28:36;96353.00;;;13.40
10869;BMP180;62667;48.698;8.762;2023-09-07T05:31:04;96351.00;;;13.40
10869;BMP180;62667;48.698;8.762;2023-09-07T05:33:31;96359.00;;;13.30
10869;BMP180;62667;48.698;8.762;2023-09-07T05:35:58;96361.00;;;13.30
10869;BMP180;62667;48.698;8.762;2023-09-07T05:38:27;96358.00;;;13.30
10869;BMP180;62667;48.698;8.762;2023-09-07T05:40:58;96363.00;;;13.30
10869;BMP180;62667;48.698;8.762;2023-09-07T05:43:25;96364.00;;;13.40
10869;BMP180;62667;48.698;8.762;2023-09-07T05:45:53;96370.00;;;13.50
10869;BMP180;62667;48.698;8.762;2023-09-07T05:48:20;96376.00;;;13.60
10869;BMP180;62667;48.698;8.762;2023-09-07T05:50:48;96372.00;;;13.60
10869;BMP180;62667;48.698;8.762;2023-09-07T05:53:15;96364.00;;;13.60
10869;BMP180;62667;48.698;8.762;2023-09-07T05:55:42;96365.00;;;13.70
10869;BMP180;62667;48.698;8.762;2023-09-07T05:58:12;96369.00;;;13.70
10869;BMP180;62667;48.698;8.762;2023-09-07T06:00:39;96367.00;;;13.70
10869;BMP180;62667;48.698;8.762;2023-09-07T06:03:07;96367.00;;;13.80
10869;BMP180;62667;48.698;8.762;2023-09-07T06:05:35;96373.00;;;13.80
10869;BMP180;62667;48.698;8.762;2023-09-07T06:08:05;96300.00;;;13.80
10869;BMP180;62667;48.698;8.762;2023-09-07T06:10:33;96368.00;;;13.90
10869;BMP180;62667;48.698;8.762;2023-09-07T06:13:01;96367.00;;;14.00
10869;BMP180;62667;48.698;8.762;2023-09-07T06:15:30;96370.00;;;14.00
10869;BMP180;62667;48.698;8.762;2023-09-07T06:17:57;96372.00;;;14.10
10869;BMP180;62667;48.698;8.762;2023-09-07T06:20:25;96368.00;;;14.20
10869;BMP180;62667;48.698;8.762;2023-09-07T06:22:52;96367.00;;;14.30
10869;BMP180;62667;48.698;8.762;2023-09-07T06:25:20;96368.00;;;14.30
10869;BMP180;62667;48.698;8.762;2023-09-07T06:27:48;96364.00;;;14.40
10869;BMP180;62667;48.698;8.762;2023-09-07T06:30:15;96366.00;;;14.40
10869;BMP180;62667;48.698;8.762;2023-09-07T06:32:44;96369.00;;;14.50
10869;BMP180;62667;48.698;8.762;2023-09-07T06:35:11;96373.00;;;14.60
10869;BMP180;62667;48.698;8.762;2023-09-07T06:37:39;96368.00;;;14.60
10869;BMP180;62667;48.698;8.762;2023-09-07T06:40:09;96381.00;;;14.70
10869;BMP180;62667;48.698;8.762;2023-09-07T06:42:38;96375.00;;;14.80
10869;BMP180;62667;48.698;8.762;2023-09-07T06:45:07;96371.00;;;14.90
10869;BMP180;62667;48.698;8.762;2023-09-07T06:47:35;96371.00;;;15.10
10869;BMP180;62667;48.698;8.762;2023-09-07T06:50:05;96381.00;;;15.10
10869;BMP180;62667;48.698;8.762;2023-09-07T06:52:32;96380.00;;;15.10
10869;BMP180;62667;48.698;8.762;2023-09-07T06:55:00;96377.00;;;15.20
10869;BMP180;62667;48.698;8.762;2023-09-07T06:57:27;96379.00;;;15.30
10869;BMP180;62667;48.698;8.762;2023-09-07T06:59:55;96384.00;;;15.40
10869;BMP180;62667;48.698;8.762;2023-09-07T07:02:22;96373.00;;;15.40
10869;BMP180;62667;48.698;8.762;2023-09-07T07:04:49;96380.00;;;15.70
10869;BMP180;62667;48.698;8.762;2023-09-07T07:07:18;96373.00;;;15.70
10869;BMP180;62667;48.698;8.762;2023-09-07T07:09:46;96376.00;;;15.80
10869;BMP180;62667;48.698;8.762;2023-09-07T07:12:14;96370.00;;;15.90
10869;BMP180;62667;48.698;8.762;2023-09-07T07:14:41;96389.00;;;16.00
10869;BMP180;62667;48.698;8.762;2023-09-07T07:17:09;96381.00;;;16.00
10869;BMP180;62667;48.698;8.762;2023-09-07T07:19:36;96389.00;;;16.20
10869;BMP180;62667;48.698;8.762;2023-09-07T07:22:04;96384.00;;;16.40
10869;BMP180;62667;48.698;8.762;2023-09-07T07:24:33;96383.00;;;16.40
10869;BMP180;62667;48.698;8.762;2023-09-07T07:27:00;96382.00;;;16.40
10869;BMP180;62667;48.698;8.762;2023-09-07T07:29:29;96384.00;;;16.50
10869;BMP180;62667;48.698;8.762;2023-09-07T07:31:57;96377.00;;;16.60
10869;BMP180;62667;48.698;8.762;2023-09-07T07:34:24;96380.00;;;16.70
10869;BMP180;62667;48.698;8.762;2023-09-07T07:36:52;96372.00;;;16.70
10869;BMP180;62667;48.698;8.762;2023-09-07T07:39:19;96377.00;;;16.80
10869;BMP180;62667;48.698;8.762;2023-09-07T07:41:48;96370.00;;;16.90
10869;BMP180;62667;48.698;8.762;2023-09-07T07:44:15;96377.00;;;17.00
10869;BMP180;62667;48.698;8.762;2023-09-07T07:46:43;96374.00;;;17.40
10869;BMP180;62667;48.698;8.762;2023-09-07T07:49:10;96372.00;;;17.50
10869;BMP180;62667;48.698;8.762;2023-09-07T07:51:38;96372.00;;;17.60
10869;BMP180;62667;48.698;8.762;2023-09-07T07:54:05;96374.00;;;17.70
10869;BMP180;62667;48.698;8.762;2023-09-07T07:56:33;96371.00;;;17.80
10869;BMP180;62667;48.698;8.762;2023-09-07T07:59:01;96371.00;;;17.80
10869;BMP180;62667;48.698;8.762;2023-09-07T08:01:29;96367.00;;;18.00
10869;BMP180;62667;48.698;8.762;2023-09-07T08:04:03;96363.00;;;18.20
10869;BMP180;62667;48.698;8.762;2023-09-07T08:06:31;96361.00;;;18.30
10869;BMP180;62667;48.698;8.762;2023-09-07T08:08:58;96372.00;;;18.60
10869;BMP180;62667;48.698;8.762;2023-09-07T08:11:26;96359.00;;;18.70
10869;BMP180;62667;48.698;8.762;2023-09-07T08:13:53;96372.00;;;18.90
10869;BMP180;62667;48.698;8.762;2023-09-07T08:16:25;96355.00;;;18.90
10869;BMP180;62667;48.698;8.762;2023-09-07T08:18:52;96358.00;;;19.10
10869;BMP180;62667;48.698;8.762;2023-09-07T08:21:23;96362.00;;;19.20
10869;BMP180;62667;48.698;8.762;2023-09-07T08:23:50;96357.00;;;19.40
10869;BMP180;62667;48.698;8.762;2023-09-07T08:26:19;96355.00;;;19.60
10869;BMP180;62667;48.698;8.762;2023-09-07T08:28:47;96360.00;;;19.80
10869;BMP180;62667;48.698;8.762;2023-09-07T08:31:14;96357.00;;;19.80
10869;BMP180;62667;48.698;8.762;2023-09-07T08:33:49;96360.00;;;20.00
10869;BMP180;62667;48.698;8.762;2023-09-07T08:36:17;96365.00;;;20.20
10869;BMP180;62667;48.698;8.762;2023-09-07T08:38:49;96358.00;;;20.30
10869;BMP180;62667;48.698;8.762;2023-09-07T08:41:17;96364.00;;;20.30
10869;BMP180;62667;48.698;8.762;2023-09-07T08:43:45;96355.00;;;20.40
10869;BMP180;62667;48.698;8.762;2023-09-07T08:46:15;96351.00;;;20.60
10869;BMP180;62667;48.698;8.762;2023-09-07T08:48:48;96361.00;;;20.80
10869;BMP180;62667;48.698;8.762;2023-09-07T08:51:18;96356.00;;;20.80
10869;BMP180;62667;48.698;8.762;2023-09-07T08:53:46;96351.00;;;20.90
10869;BMP180;62667;48.698;8.762;2023-09-07T08:56:14;96358.00;;;20.90
10869;BMP180;62667;48.698;8.762;2023-09-07T08:58:41;96360.00;;;21.10
10869;BMP180;62667;48.698;8.762;2023-09-07T09:01:10;96361.00;;;21.30
10869;BMP180;62667;48.698;8.762;2023-09-07T09:03:38;96359.00;;;21.40
10869;BMP180;62667;48.698;8.762;2023-09-07T09:06:07;96357.00;;;21.50
10869;BMP180;62667;48.698;8.762;2023-09-07T09:08:45;96362.00;;;21.50
10869;BMP180;62667;48.698;8.762;2023-09-07T09:11:13;96365.00;;;21.70
10869;BMP180;62667;48.698;8.762;2023-09-07T09:13:41;96360.00;;;21.80
10869;BMP180;62667;48.698;8.762;2023-09-07T09:16:09;96356.00;;;21.90
10869;BMP180;62667;48.698;8.762;2023-09-07T09:18:36;96363.00;;;22.00
10869;BMP180;62667;48.698;8.762;2023-09-07T09:21:06;96352.00;;;22.10
10869;BMP180;62667;48.698;8.762;2023-09-07T09:23:35;96353.00;;;22.00
10869;BMP180;62667;48.698;8.762;2023-09-07T09:26:03;96356.00;;;22.20
10869;BMP180;62667;48.698;8.762;2023-09-07T09:28:31;96350.00;;;22.40
10869;BMP180;62667;48.698;8.762;2023-09-07T09:30:59;96354.00;;;22.60
10869;BMP180;62667;48.698;8.762;2023-09-07T09:33:30;96358.00;;;22.70
10869;BMP180;62667;48.698;8.762;2023-09-07T09:35:57;96346.00;;;22.70
10869;BMP180;62667;48.698;8.762;2023-09-07T09:38:26;96354.00;;;22.80
10869;BMP180;62667;48.698;8.762;2023-09-07T09:40:53;96343.00;;;22.90
10869;BMP180;62667;48.698;8.762;2023-09-07T09:43:21;96349.00;;;22.80
10869;BMP180;62667;48.698;8.762;2023-09-07T09:45:49;96348.00;;;22.90
10869;BMP180;62667;48.698;8.762;2023-09-07T09:48:19;96346.00;;;22.90
10869;BMP180;62667;48.698;8.762;2023-09-07T09:50:47;96349.00;;;23.20
10869;BMP180;62667;48.698;8.762;2023-09-07T09:53:16;96347.00;;;23.40
10869;BMP180;62667;48.698;8.762;2023-09-07T09:55:46;96339.00;;;23.30
10869;BMP180;62667;48.698;8.762;2023-09-07T09:58:14;96346.00;;;23.40
10869;BMP180;62667;48.698;8.762;2023-09-07T10:00:43;96339.00;;;23.60
10869;BMP180;62667;48.698;8.762;2023-09-07T10:03:18;96337.00;;;23.50
10869;BMP180;62667;48.698;8.762;2023-09-07T10:05:49;96339.00;;;23.50
10869;BMP180;62667;48.698;8.762;2023-09-07T10:08:19;96346.00;;;23.80
10869;BMP180;62667;48.698;8.762;2023-09-07T10:10:53;96336.00;;;23.90
10869;BMP180;62667;48.698;8.762;2023-09-07T10:13:31;96343.00;;;24.20
10869;BMP180;62667;48.698;8.762;2023-09-07T10:16:03;96342.00;;;24.30
10869;BMP180;62667;48.698;8.762;2023-09-07T10:18:34;96339.00;;;24.40
10869;BMP180;62667;48.698;8.762;2023-09-07T10:21:02;96334.00;;;24.50
10869;BMP180;62667;48.698;8.762;2023-09-07T10:23:37;96333.00;;;24.50
10869;BMP180;62667;48.698;8.762;2023-09-07T10:26:11;96327.00;;;24.80
10869;BMP180;62667;48.698;8.762;2023-09-07T10:28:40;96321.00;;;24.90
10869;BMP180;62667;48.698;8.762;2023-09-07T10:31:12;96315.00;;;25.10
10869;BMP180;62667;48.698;8.762;2023-09-07T10:33:40;96313.00;;;25.20
10869;BMP180;62667;48.698;8.762;2023-09-07T10:36:08;96307.00;;;25.30
10869;BMP180;62667;48.698;8.762;2023-09-07T10:38:36;96314.00;;;25.40
10869;BMP180;62667;48.698;8.762;2023-09-07T10:41:06;96312.00;;;25.60
10869;BMP180;62667;48.698;8.762;2023-09-07T10:43:34;96314.00;;;25.60
10869;BMP180;62667;48.698;8.762;2023-09-07T10:46:01;96299.00;;;25.90
10869;BMP180;62667;48.698;8.762;2023-09-07T10:48:30;96305.00;;;26.20
10869;BMP180;62667;48.698;8.762;2023-09-07T10:50:57;96302.00;;;26.20
10869;BMP180;62667;48.698;8.762;2023-09-07T10:53:26;96300.00;;;25.80
10869;BMP180;62667;48.698;8.762;2023-09-07T10:55:56;96306.00;;;26.10
10869;BMP180;62667;48.698;8.762;2023-09-07T10:58:26;96299.00;;;26.40
10869;BMP180;62667;48.698;8.762;2023-09-07T11:00:54;96295.00;;;26.40
10869;BMP180;62667;48.698;8.762;2023-09-07T11:03:22;96297.00;;;26.70
10869;BMP180;62667;48.698;8.762;2023-09-07T11:05:53;96295.00;;;26.80
10869;BMP180;62667;48.698;8.762;2023-09-07T11:08:21;96295.00;;;26.90
10869;BMP180;62667;48.698;8.762;2023-09-07T11:10:50;96290.00;;;26.60
10869;BMP180;62667;48.698;8.762;2023-09-07T11:13:18;96293.00;;;27.00
10869;BMP180;62667;48.698;8.762;2023-09-07T11:15:47;96299.00;;;27.10
10869;BMP180;62667;48.698;8.762;2023-09-07T11:18:18;96289.00;;;27.20
10869;BMP180;62667;48.698;8.762;2023-09-07T11:20:46;96292.00;;;27.20
10869;BMP180;62667;48.698;8.762;2023-09-07T11:23:13;96292.00;;;27.40
10869;BMP180;62667;48.698;8.762;2023-09-07T11:25:41;96296.00;;;27.30
10869;BMP180;62667;48.698;8.762;2023-09-07T11:28:09;96290.00;;;27.50
10869;BMP180;62667;48.698;8.762;2023-09-07T11:30:47;96288.00;;;27.60
10869;BMP180;62667;48.698;8.762;2023-09-07T11:33:17;96297.00;;;27.80
10869;BMP180;62667;48.698;8.762;2023-09-07T11:35:44;96294.00;;;27.70
10869;BMP180;62667;48.698;8.762;2023-09-07T11:38:14;96295.00;;;27.60
10869;BMP180;62667;48.698;8.762;2023-09-07T11:40:41;96293.00;;;27.90
10869;BMP180;62667;48.698;8.762;2023-09-07T11:43:10;96293.00;;;28.20
10869;BMP180;62667;48.698;8.762;2023-09-07T11:45:39;96300.00;;;28.00
10869;BMP180;62667;48.698;8.762;2023-09-07T11:48:07;96291.00;;;28.20
10869;BMP180;62667;48.698;8.762;2023-09-07T11:50:37;96293.00;;;28.10
10869;BMP180;62667;48.698;8.762;2023-09-07T11:53:05;96292.00;;;28.00
10869;BMP180;62667;48.698;8.762;2023-09-07T11:55:32;96294.00;;;28.20
10869;BMP180;62667;48.698;8.762;2023-09-07T11:58:01;96287.00;;;28.40
10869;BMP180;62667;48.698;8.762;2023-09-07T12:00:28;96290.00;;;28.00
10869;BMP180;62667;48.698;8.762;2023-09-07T12:02:57;96292.00;;;28.30
10869;BMP180;62667;48.698;8.762;2023-09-07T12:05:24;96289.00;;;28.30
10869;BMP180;62667;48.698;8.762;2023-09-07T12:07:53;96286.00;;;28.60
10869;BMP180;62667;48.698;8.762;2023-09-07T12:10:21;96289.00;;;28.70
10869;BMP180;62667;48.698;8.762;2023-09-07T12:12:48;96289.00;;;28.60
10869;BMP180;62667;48.698;8.762;2023-09-07T12:15:15;96288.00;;;28.50
10869;BMP180;62667;48.698;8.762;2023-09-07T12:17:43;96289.00;;;28.60
10869;BMP180;62667;48.698;8.762;2023-09-07T12:20:11;96289.00;;;29.10
10869;BMP180;62667;48.698;8.762;2023-09-07T12:22:40;96286.00;;;29.10
10869;BMP180;62667;48.698;8.762;2023-09-07T12:25:09;96286.00;;;29.20
10869;BMP180;62667;48.698;8.762;2023-09-07T12:27:38;96290.00;;;29.40
10869;BMP180;62667;48.698;8.762;2023-09-07T12:30:06;96294.00;;;29.10
10869;BMP180;62667;48.698;8.762;2023-09-07T12:32:38;96283.00;;;29.30
10869;BMP180;62667;48.698;8.762;2023-09-07T12:35:06;96296.00;;;29.60
10869;BMP180;62667;48.698;8.762;2023-09-07T12:37:35;96289.00;;;29.40
10869;BMP180;62667;48.698;8.762;2023-09-07T12:40:03;96291.00;;;29.30
10869;BMP180;62667;48.698;8.762;2023-09-07T12:42:39;96287.00;;;29.30
10869;BMP180;62667;48.698;8.762;2023-09-07T12:45:08;96279.00;;;29.10
10869;BMP180;62667;48.698;8.762;2023-09-07T12:47:36;96282.00;;;29.00
10869;BMP180;62667;48.698;8.762;2023-09-07T12:50:04;96286.00;;;29.50
10869;BMP180;62667;48.698;8.762;2023-09-07T12:52:33;96277.00;;;29.80
10869;BMP180;62667;48.698;8.762;2023-09-07T12:55:02;96277.00;;;30.00
10869;BMP180;62667;48.698;8.762;2023-09-07T12:57:29;96270.00;;;30.20
10869;BMP180;62667;48.698;8.762;2023-09-07T12:59:58;96269.00;;;30.20
10869;BMP180;62667;48.698;8.762;2023-09-07T13:02:25;96273.00;;;30.40
10869;BMP180;62667;48.698;8.762;2023-09-07T13:04:54;96269.00;;;30.50
10869;BMP180;62667;48.698;8.762;2023-09-07T13:07:22;96274.00;;;30.80
10869;BMP180;62667;48.698;8.762;2023-09-07T13:09:49;96264.00;;;31.10
10869;BMP180;62667;48.698;8.762;2023-09-07T13:12:17;96274.00;;;31.20
10869;BMP180;62667;48.698;8.762;2023-09-07T13:14:50;96275.00;;;31.20
10869;BMP180;62667;48.698;8.762;2023-09-07T13:17:19;96269.00;;;31.00
10869;BMP180;62667;48.698;8.762;2023-09-07T13:19:47;96275.00;;;30.70
10869;BMP180;62667;48.698;8.762;2023-09-07T13:22:15;96277.00;;;30.70
10869;BMP180;62667;48.698;8.762;2023-09-07T13:24:42;96268.00;;;30.80
10869;BMP180;62667;48.698;8.762;2023-09-07T13:27:09;96273.00;;;30.90
10869;BMP180;62667;48.698;8.762;2023-09-07T13:29:37;96275.00;;;31.20
10869;BMP180;62667;48.698;8.762;2023-09-07T13:32:05;96270.00;;;31.40
10869;BMP180;62667;48.698;8.762;2023-09-07T13:34:34;96273.00;;;31.10
10869;BMP180;62667;48.698;8.762;2023-09-07T13:37:01;96269.00;;;31.40
10869;BMP180;62667;48.698;8.762;2023-09-07T13:39:28;96270.00;;;32.00
10869;BMP180;62667;48.698;8.762;2023-09-07T13:41:56;96262.00;;;32.10
10869;BMP180;62667;48.698;8.762;2023-09-07T13:44:23;96257.00;;;32.60
10869;BMP180;62667;48.698;8.762;2023-09-07T13:46:51;96258.00;;;32.40
10869;BMP180;62667;48.698;8.762;2023-09-07T13:49:20;96262.00;;;32.80
10869;BMP180;62667;48.698;8.762;2023-09-07T13:51:48;96258.00;;;32.60
10869;BMP180;62667;48.698;8.762;2023-09-07T13:54:16;96263.00;;;32.30
10869;BMP180;62667;48.698;8.762;2023-09-07T13:56:43;96260.00;;;32.90
10869;BMP180;62667;48.698;8.762;2023-09-07T13:59:11;96259.00;;;33.60
10869;BMP180;62667;48.698;8.762;2023-09-07T14:01:38;96258.00;;;33.80
10869;BMP180;62667;48.698;8.762;2023-09-07T14:04:06;96252.00;;;33.70
10869;BMP180;62667;48.698;8.762;2023-09-07T14:06:33;96257.00;;;32.90
10869;BMP180;62667;48.698;8.762;2023-09-07T14:09:02;96253.00;;;33.30
10869;BMP180;62667;48.698;8.762;2023-09-07T14:11:33;96252.00;;;34.20
10869;BMP180;62667;48.698;8.762;2023-09-07T14:14:00;96258.00;;;34.60